Airfield :
LOGIN :

Register | Disclaimer

   EN    FR    IT 

 










Legend :    VFR   Marginal VFR   IFR   Intensive IFR   Very Intensive IFR
Visi :
Ceiling :
>= 8 km
>= 3000ft
5 to 8 km
1000 to 3000 ft
1500m to 5 km
500 to 1000 ft
800 to 1500m
200 to 500 ft
< 800m
< 200 ft
Symbols :   Thunderstorms  Fog  Heavy snow  Heavy precipitations  Wind > 20 kt
SIGMETs :     Misc.  Thunderstorms  Icing  Turbulence  Mountain Waves  Volcanic Ashes






- Airport Elevation : 44 ft
- IATA code : SOU


EGHI - Southampton

CURRENT METAR :
  • 122150Z 20008KT 9999 -RA FEW026 09/07 Q0975

EXPIRED METARs :
  • 122120Z 21008KT 9999 -RA FEW026 09/07 Q0976
  • 122050Z 20008KT 9999 SCT036 09/06 Q0977
  • 122020Z 22007KT 9999 SCT036 09/06 Q0978
  • 121950Z 22009KT 9999 FEW032 SCT042 09/07 Q0979
  • 121920Z 23007KT 200V260 9999 FEW025 SCT042 09/06 Q0979

TAF TAF EGHI
Valid from the 12 at 21:00 until the 12 at 23:00 UTC


121956Z 1221/1223 23008KT 9999 FEW010 BKN020
TEMPO 1221/1223 6000 SHRA
PROB30
TEMPO 1221/1223 23015G25KT 3000 +SHRA BKN014
ATIS : +44 23 8062 7103



MET'MAP, your aeronautical weather chart ! - Copyright ORBIFLY December 2007 - Disclaimer

ORBIFLY MET'MAP TEAM :

Programming & Development : Alexandra Zaïnal
Concept & original design : Baudouin d'Aumeries
Assistance for programming : Marc-Olivier Méhu
Technical & hardware support : Manuel Goepfert

Contact : metmap@orbifly.com




SOURCES & CREDITS :

   NOAA